sensor_id;sensor_type;location;lat;lon;timestamp;pressure;altitude;pressure_sealevel;temperature;humidity
42169;BME280;27838;43.858;25.974;2023-07-28T00:00:42;100933.03;;;22.70;59.12
42169;BME280;27838;43.858;25.974;2023-07-28T00:03:09;100933.91;;;22.70;58.33
42169;BME280;27838;43.858;25.974;2023-07-28T00:05:36;100932.81;;;22.74;58.35
42169;BME280;27838;43.858;25.974;2023-07-28T00:08:03;100931.13;;;22.73;58.24
42169;BME280;27838;43.858;25.974;2023-07-28T00:10:29;100936.31;;;22.75;57.55
42169;BME280;27838;43.858;25.974;2023-07-28T00:12:56;100934.47;;;22.77;57.47
42169;BME280;27838;43.858;25.974;2023-07-28T00:15:23;100921.41;;;22.72;57.12
42169;BME280;27838;43.858;25.974;2023-07-28T00:17:49;100936.44;;;22.73;57.20
42169;BME280;27838;43.858;25.974;2023-07-28T00:20:17;100934.63;;;22.74;56.90
42169;BME280;27838;43.858;25.974;2023-07-28T00:22:43;100938.19;;;22.73;56.46
42169;BME280;27838;43.858;25.974;2023-07-28T00:25:10;100935.63;;;22.71;56.24
42169;BME280;27838;43.858;25.974;2023-07-28T00:27:37;100933.91;;;22.70;56.52
42169;BME280;27838;43.858;25.974;2023-07-28T00:30:03;100934.69;;;22.72;55.96
42169;BME280;27838;43.858;25.974;2023-07-28T00:32:30;100934.63;;;22.74;56.19
42169;BME280;27838;43.858;25.974;2023-07-28T00:34:56;100935.63;;;22.71;55.57
42169;BME280;27838;43.858;25.974;2023-07-28T00:37:23;100937.63;;;22.66;55.69
42169;BME280;27838;43.858;25.974;2023-07-28T00:39:49;100940.28;;;22.66;54.94
42169;BME280;27838;43.858;25.974;2023-07-28T00:42:16;100941.16;;;22.67;54.63
42169;BME280;27838;43.858;25.974;2023-07-28T00:44:43;100951.00;;;22.65;54.43
42169;BME280;27838;43.858;25.974;2023-07-28T00:47:09;100950.25;;;22.61;54.47
42169;BME280;27838;43.858;25.974;2023-07-28T00:49:36;100951.28;;;22.58;54.70
42169;BME280;27838;43.858;25.974;2023-07-28T00:52:08;100953.09;;;22.58;54.82
42169;BME280;27838;43.858;25.974;2023-07-28T00:54:36;100956.59;;;22.58;54.65
42169;BME280;27838;43.858;25.974;2023-07-28T00:57:02;100950.56;;;22.55;54.34
42169;BME280;27838;43.858;25.974;2023-07-28T00:59:30;100951.41;;;22.55;53.73
42169;BME280;27838;43.858;25.974;2023-07-28T01:01:57;100951.34;;;22.57;53.79
42169;BME280;27838;43.858;25.974;2023-07-28T01:04:24;100955.88;;;22.55;53.16
42169;BME280;27838;43.858;25.974;2023-07-28T01:06:58;100960.53;;;22.50;52.55
42169;BME280;27838;43.858;25.974;2023-07-28T01:09:36;100957.28;;;22.43;53.05
42169;BME280;27838;43.858;25.974;2023-07-28T01:12:07;100955.66;;;22.40;52.45
42169;BME280;27838;43.858;25.974;2023-07-28T01:14:34;100958.31;;;22.40;52.20
42169;BME280;27838;43.858;25.974;2023-07-28T01:17:01;100952.06;;;22.41;52.27
42169;BME280;27838;43.858;25.974;2023-07-28T01:19:27;100951.41;;;22.36;52.44
42169;BME280;27838;43.858;25.974;2023-07-28T01:24:51;100956.94;;;22.32;52.62
42169;BME280;27838;43.858;25.974;2023-07-28T01:27:22;100954.28;;;22.32;52.29
42169;BME280;27838;43.858;25.974;2023-07-28T01:29:48;100952.63;;;22.29;52.14
42169;BME280;27838;43.858;25.974;2023-07-28T01:32:15;100956.88;;;22.33;52.97
42169;BME280;27838;43.858;25.974;2023-07-28T01:34:42;100948.25;;;22.28;52.49
42169;BME280;27838;43.858;25.974;2023-07-28T01:37:08;100951.00;;;22.25;52.18
42169;BME280;27838;43.858;25.974;2023-07-28T01:39:35;100965.09;;;22.27;51.77
42169;BME280;27838;43.858;25.974;2023-07-28T01:42:01;100961.47;;;22.30;51.62
42169;BME280;27838;43.858;25.974;2023-07-28T01:44:28;100964.13;;;22.30;50.81
42169;BME280;27838;43.858;25.974;2023-07-28T01:46:54;100968.75;;;22.24;51.60
42169;BME280;27838;43.858;25.974;2023-07-28T01:49:21;100970.81;;;22.18;51.47
42169;BME280;27838;43.858;25.974;2023-07-28T01:51:47;100984.25;;;22.13;51.30
42169;BME280;27838;43.858;25.974;2023-07-28T01:54:14;100973.84;;;22.09;50.27
42169;BME280;27838;43.858;25.974;2023-07-28T01:56:41;100974.97;;;22.03;50.67
42169;BME280;27838;43.858;25.974;2023-07-28T01:59:07;100977.69;;;22.01;50.65
42169;BME280;27838;43.858;25.974;2023-07-28T02:01:34;100980.41;;;22.00;50.76
42169;BME280;27838;43.858;25.974;2023-07-28T02:04:01;100987.34;;;22.04;51.24
42169;BME280;27838;43.858;25.974;2023-07-28T02:06:27;100990.00;;;22.04;50.75
42169;BME280;27838;43.858;25.974;2023-07-28T02:08:54;100997.00;;;22.05;50.78
42169;BME280;27838;43.858;25.974;2023-07-28T02:11:20;101003.19;;;22.05;50.84
42169;BME280;27838;43.858;25.974;2023-07-28T02:13:47;101002.25;;;22.06;51.73
42169;BME280;27838;43.858;25.974;2023-07-28T02:16:13;101003.03;;;22.09;51.41
42169;BME280;27838;43.858;25.974;2023-07-28T02:18:40;100999.59;;;22.06;50.91
42169;BME280;27838;43.858;25.974;2023-07-28T02:21:08;101001.53;;;22.03;50.51
42169;BME280;27838;43.858;25.974;2023-07-28T02:23:35;101000.78;;;21.99;50.45
42169;BME280;27838;43.858;25.974;2023-07-28T02:26:01;101010.56;;;21.99;50.76
42169;BME280;27838;43.858;25.974;2023-07-28T02:28:28;101004.41;;;21.98;50.40
42169;BME280;27838;43.858;25.974;2023-07-28T02:30:55;101002.78;;;21.94;50.10
42169;BME280;27838;43.858;25.974;2023-07-28T02:33:21;101007.34;;;21.91;49.90
42169;BME280;27838;43.858;25.974;2023-07-28T02:35:48;101014.47;;;21.90;50.34
42169;BME280;27838;43.858;25.974;2023-07-28T02:38:14;101014.53;;;21.88;49.47
42169;BME280;27838;43.858;25.974;2023-07-28T02:40:41;101014.59;;;21.87;50.19
42169;BME280;27838;43.858;25.974;2023-07-28T02:43:08;101014.88;;;21.81;50.23
42169;BME280;27838;43.858;25.974;2023-07-28T02:45:35;101019.22;;;21.82;49.95
42169;BME280;27838;43.858;25.974;2023-07-28T02:48:01;101015.91;;;21.77;50.53
42169;BME280;27838;43.858;25.974;2023-07-28T02:50:28;101006.31;;;21.74;50.35
42169;BME280;27838;43.858;25.974;2023-07-28T02:52:54;101020.34;;;21.76;50.40
42169;BME280;27838;43.858;25.974;2023-07-28T02:55:21;101022.16;;;21.76;50.91
42169;BME280;27838;43.858;25.974;2023-07-28T02:57:48;101020.69;;;21.68;50.57
42169;BME280;27838;43.858;25.974;2023-07-28T03:00:14;101029.88;;;21.60;50.65
42169;BME280;27838;43.858;25.974;2023-07-28T03:02:41;101034.44;;;21.56;51.45
42169;BME280;27838;43.858;25.974;2023-07-28T03:05:07;101032.03;;;21.50;51.32
42169;BME280;27838;43.858;25.974;2023-07-28T03:07:34;101029.59;;;21.44;51.22
42169;BME280;27838;43.858;25.974;2023-07-28T03:10:01;101032.25;;;21.44;51.16
42169;BME280;27838;43.858;25.974;2023-07-28T03:12:27;101047.34;;;21.42;51.26
42169;BME280;27838;43.858;25.974;2023-07-28T03:14:54;101041.59;;;21.32;51.41
42169;BME280;27838;43.858;25.974;2023-07-28T03:17:20;101045.31;;;21.26;50.99
42169;BME280;27838;43.858;25.974;2023-07-28T03:19:47;101044.56;;;21.23;51.68
42169;BME280;27838;43.858;25.974;2023-07-28T03:22:13;101038.53;;;21.19;51.90
42169;BME280;27838;43.858;25.974;2023-07-28T03:24:40;101056.75;;;21.28;51.83
42169;BME280;27838;43.858;25.974;2023-07-28T03:27:07;101050.56;;;21.28;51.71
42169;BME280;27838;43.858;25.974;2023-07-28T03:29:34;101041.19;;;21.19;51.85
42169;BME280;27838;43.858;25.974;2023-07-28T03:32:00;101053.47;;;21.22;52.21
42169;BME280;27838;43.858;25.974;2023-07-28T03:34:27;101050.72;;;21.25;52.31
42169;BME280;27838;43.858;25.974;2023-07-28T03:36:53;101043.59;;;21.25;52.46
42169;BME280;27838;43.858;25.974;2023-07-28T03:39:20;101057.59;;;21.29;52.27
42169;BME280;27838;43.858;25.974;2023-07-28T03:41:46;101059.41;;;21.28;52.73
42169;BME280;27838;43.858;25.974;2023-07-28T03:44:13;101053.41;;;21.23;52.91
42169;BME280;27838;43.858;25.974;2023-07-28T03:46:41;101051.44;;;21.28;52.62
42169;BME280;27838;43.858;25.974;2023-07-28T03:49:08;101060.69;;;21.40;52.87
42169;BME280;27838;43.858;25.974;2023-07-28T03:51:34;101059.03;;;21.38;52.43
42169;BME280;27838;43.858;25.974;2023-07-28T03:54:01;101070.25;;;21.44;52.75
42169;BME280;27838;43.858;25.974;2023-07-28T03:56:27;101063.97;;;21.47;52.22
42169;BME280;27838;43.858;25.974;2023-07-28T03:58:54;101068.09;;;21.54;52.38
42169;BME280;27838;43.858;25.974;2023-07-28T04:01:20;101062.69;;;21.57;52.34
42169;BME280;27838;43.858;25.974;2023-07-28T04:03:48;101072.19;;;21.63;52.81
42169;BME280;27838;43.858;25.974;2023-07-28T04:06:15;101073.06;;;21.63;52.81
42169;BME280;27838;43.858;25.974;2023-07-28T04:08:41;101072.06;;;21.66;53.64
42169;BME280;27838;43.858;25.974;2023-07-28T04:11:08;101071.94;;;21.69;53.84
42169;BME280;27838;43.858;25.974;2023-07-28T04:13:35;101077.13;;;21.72;53.62
42169;BME280;27838;43.858;25.974;2023-07-28T04:16:01;101083.03;;;21.79;53.59
42169;BME280;27838;43.858;25.974;2023-07-28T04:18:28;101067.94;;;21.81;52.99
42169;BME280;27838;43.858;25.974;2023-07-28T04:20:54;101065.19;;;21.82;53.15
42169;BME280;27838;43.858;25.974;2023-07-28T04:23:21;101077.22;;;21.91;52.74
42169;BME280;27838;43.858;25.974;2023-07-28T04:25:47;101075.22;;;21.96;52.42
42169;BME280;27838;43.858;25.974;2023-07-28T04:28:14;101082.94;;;22.02;52.31
42169;BME280;27838;43.858;25.974;2023-07-28T04:30:40;101091.81;;;22.01;52.35
42169;BME280;27838;43.858;25.974;2023-07-28T04:33:07;101090.91;;;22.02;51.58
42169;BME280;27838;43.858;25.974;2023-07-28T04:35:33;101079.44;;;22.02;51.82
42169;BME280;27838;43.858;25.974;2023-07-28T04:38:00;101080.16;;;22.05;51.77
42169;BME280;27838;43.858;25.974;2023-07-28T04:40:26;101074.81;;;22.07;51.54
42169;BME280;27838;43.858;25.974;2023-07-28T04:42:53;101084.34;;;22.11;51.69
42169;BME280;27838;43.858;25.974;2023-07-28T04:45:19;101080.78;;;22.12;51.94
42169;BME280;27838;43.858;25.974;2023-07-28T04:47:46;101097.56;;;22.13;51.95
42169;BME280;27838;43.858;25.974;2023-07-28T04:50:13;101091.53;;;22.09;51.63
42169;BME280;27838;43.858;25.974;2023-07-28T04:52:39;101086.44;;;22.03;51.46
42169;BME280;27838;43.858;25.974;2023-07-28T04:55:06;101090.91;;;22.02;51.74
42169;BME280;27838;43.858;25.974;2023-07-28T04:57:33;101094.34;;;22.04;51.70
42169;BME280;27838;43.858;25.974;2023-07-28T04:59:59;101095.22;;;22.05;51.79
42169;BME280;27838;43.858;25.974;2023-07-28T05:02:26;101092.66;;;22.03;51.51
42169;BME280;27838;43.858;25.974;2023-07-28T05:04:52;101101.06;;;22.13;51.57
42169;BME280;27838;43.858;25.974;2023-07-28T05:07:19;101099.34;;;22.12;51.39
42169;BME280;27838;43.858;25.974;2023-07-28T05:09:45;101085.94;;;22.15;51.24
42169;BME280;27838;43.858;25.974;2023-07-28T05:12:12;101099.09;;;22.18;50.89
42169;BME280;27838;43.858;25.974;2023-07-28T05:14:38;101082.53;;;22.12;51.06
42169;BME280;27838;43.858;25.974;2023-07-28T05:17:05;101096.09;;;22.26;50.88
42169;BME280;27838;43.858;25.974;2023-07-28T05:19:31;101089.78;;;22.30;50.80
42169;BME280;27838;43.858;25.974;2023-07-28T05:21:58;101102.34;;;22.25;50.95
42169;BME280;27838;43.858;25.974;2023-07-28T05:24:24;101101.97;;;22.34;51.03
42169;BME280;27838;43.858;25.974;2023-07-28T05:26:51;101091.88;;;22.42;50.30
42169;BME280;27838;43.858;25.974;2023-07-28T05:29:17;101103.31;;;22.44;47.25
42169;BME280;27838;43.858;25.974;2023-07-28T05:31:45;101096.41;;;22.40;47.83
42169;BME280;27838;43.858;25.974;2023-07-28T05:34:11;101093.59;;;22.43;48.60
42169;BME280;27838;43.858;25.974;2023-07-28T05:36:38;101092.69;;;22.44;47.93
42169;BME280;27838;43.858;25.974;2023-07-28T05:39:05;101098.31;;;22.57;47.88
42169;BME280;27838;43.858;25.974;2023-07-28T05:41:31;101095.44;;;22.62;47.56
42169;BME280;27838;43.858;25.974;2023-07-28T05:43:58;101090.28;;;22.59;46.82
42169;BME280;27838;43.858;25.974;2023-07-28T05:46:24;101094.31;;;22.68;46.63
42169;BME280;27838;43.858;25.974;2023-07-28T05:48:51;101092.44;;;22.70;46.06
42169;BME280;27838;43.858;25.974;2023-07-28T05:51:17;101101.94;;;22.75;46.28
42169;BME280;27838;43.858;25.974;2023-07-28T05:53:44;101105.53;;;22.74;45.60
42169;BME280;27838;43.858;25.974;2023-07-28T05:56:10;101101.50;;;22.66;45.59
42169;BME280;27838;43.858;25.974;2023-07-28T05:58:37;101105.28;;;22.60;45.58
42169;BME280;27838;43.858;25.974;2023-07-28T06:01:03;101109.22;;;22.51;46.71
42169;BME280;27838;43.858;25.974;2023-07-28T06:03:30;101114.19;;;22.59;46.80
42169;BME280;27838;43.858;25.974;2023-07-28T06:05:57;101109.41;;;22.67;46.36
42169;BME280;27838;43.858;25.974;2023-07-28T06:08:23;101109.41;;;22.67;46.18
42169;BME280;27838;43.858;25.974;2023-07-28T06:10:50;101094.25;;;22.69;46.13
42169;BME280;27838;43.858;25.974;2023-07-28T06:13:16;101103.09;;;22.89;46.51
42169;BME280;27838;43.858;25.974;2023-07-28T06:15:43;101111.34;;;23.03;46.50
42169;BME280;27838;43.858;25.974;2023-07-28T06:18:10;101102.38;;;23.06;45.96
42169;BME280;27838;43.858;25.974;2023-07-28T06:20:36;101095.25;;;23.06;45.84
42169;BME280;27838;43.858;25.974;2023-07-28T06:23:03;101104.53;;;23.16;46.92
42169;BME280;27838;43.858;25.974;2023-07-28T06:25:30;101108.63;;;23.24;47.02
42169;BME280;27838;43.858;25.974;2023-07-28T06:27:56;101098.94;;;23.23;46.55
42169;BME280;27838;43.858;25.974;2023-07-28T06:30:23;101102.56;;;23.39;46.36
42169;BME280;27838;43.858;25.974;2023-07-28T06:32:49;101085.53;;;23.43;44.81
42169;BME280;27838;43.858;25.974;2023-07-28T06:35:16;101097.53;;;23.52;45.43
42169;BME280;27838;43.858;25.974;2023-07-28T06:37:42;101097.31;;;23.56;46.22
42169;BME280;27838;43.858;25.974;2023-07-28T06:40:09;101108.59;;;23.62;45.97
42169;BME280;27838;43.858;25.974;2023-07-28T06:42:36;101101.09;;;23.70;45.47
42169;BME280;27838;43.858;25.974;2023-07-28T06:45:03;101097.28;;;23.75;45.47
42169;BME280;27838;43.858;25.974;2023-07-28T06:47:30;101098.66;;;23.84;44.82
42169;BME280;27838;43.858;25.974;2023-07-28T06:49:57;101096.47;;;23.92;44.67
42169;BME280;27838;43.858;25.974;2023-07-28T06:52:23;101092.41;;;24.03;44.10
42169;BME280;27838;43.858;25.974;2023-07-28T06:54:50;101096.41;;;24.11;43.81
42169;BME280;27838;43.858;25.974;2023-07-28T06:57:16;101102.97;;;24.22;43.78
42169;BME280;27838;43.858;25.974;2023-07-28T06:59:43;101102.59;;;24.29;42.95
42169;BME280;27838;43.858;25.974;2023-07-28T07:02:09;101090.81;;;24.34;41.92
42169;BME280;27838;43.858;25.974;2023-07-28T07:04:36;101086.28;;;24.36;42.07
42169;BME280;27838;43.858;25.974;2023-07-28T07:07:03;101090.53;;;24.40;42.60
42169;BME280;27838;43.858;25.974;2023-07-28T07:09:30;101094.75;;;24.44;42.29
42169;BME280;27838;43.858;25.974;2023-07-28T07:11:56;101106.78;;;24.51;42.24
42169;BME280;27838;43.858;25.974;2023-07-28T07:14:23;101105.75;;;24.55;41.67
42169;BME280;27838;43.858;25.974;2023-07-28T07:16:49;101098.25;;;24.62;41.13
42169;BME280;27838;43.858;25.974;2023-07-28T07:19:16;101101.47;;;24.68;42.56
42169;BME280;27838;43.858;25.974;2023-07-28T07:21:42;101098.28;;;24.78;42.53
42169;BME280;27838;43.858;25.974;2023-07-28T07:24:10;101103.31;;;24.84;40.67
42169;BME280;27838;43.858;25.974;2023-07-28T07:26:41;101094.03;;;24.91;41.57
42169;BME280;27838;43.858;25.974;2023-07-28T07:29:08;101096.31;;;24.99;41.25
42169;BME280;27838;43.858;25.974;2023-07-28T07:31:35;101099.38;;;25.07;41.00
42169;BME280;27838;43.858;25.974;2023-07-28T07:34:02;101105.34;;;25.12;40.03
42169;BME280;27838;43.858;25.974;2023-07-28T07:36:29;101110.50;;;25.15;39.81
42169;BME280;27838;43.858;25.974;2023-07-28T07:38:56;101104.66;;;25.09;39.51
42169;BME280;27838;43.858;25.974;2023-07-28T07:41:22;101095.44;;;25.14;39.72
42169;BME280;27838;43.858;25.974;2023-07-28T07:43:51;101102.78;;;25.27;39.29
42169;BME280;27838;43.858;25.974;2023-07-28T07:46:19;101099.88;;;25.31;39.33
42169;BME280;27838;43.858;25.974;2023-07-28T07:48:46;101105.50;;;25.42;39.29
42169;BME280;27838;43.858;25.974;2023-07-28T07:51:13;101104.19;;;25.50;38.64
42169;BME280;27838;43.858;25.974;2023-07-28T07:53:39;101102.22;;;25.53;38.50
42169;BME280;27838;43.858;25.974;2023-07-28T07:56:07;101086.09;;;25.55;38.44
42169;BME280;27838;43.858;25.974;2023-07-28T07:58:34;101088.16;;;25.66;38.51
42169;BME280;27838;43.858;25.974;2023-07-28T08:01:01;101085.03;;;25.73;37.07
42169;BME280;27838;43.858;25.974;2023-07-28T08:03:27;101086.94;;;25.71;37.49
42169;BME280;27838;43.858;25.974;2023-07-28T08:05:54;101073.44;;;25.58;36.18
42169;BME280;27838;43.858;25.974;2023-07-28T08:08:21;101090.91;;;25.64;36.70
42169;BME280;27838;43.858;25.974;2023-07-28T08:10:47;101089.06;;;25.80;37.74
42169;BME280;27838;43.858;25.974;2023-07-28T08:13:14;101089.47;;;25.89;36.46
42169;BME280;27838;43.858;25.974;2023-07-28T08:15:44;101081.47;;;25.89;35.19
42169;BME280;27838;43.858;25.974;2023-07-28T08:18:12;101074.22;;;25.91;35.69
42169;BME280;27838;43.858;25.974;2023-07-28T08:20:39;101082.50;;;26.02;35.47
42169;BME280;27838;43.858;25.974;2023-07-28T08:23:06;101082.13;;;26.08;34.75
42169;BME280;27838;43.858;25.974;2023-07-28T08:25:33;101073.25;;;26.08;33.38
42169;BME280;27838;43.858;25.974;2023-07-28T08:28:00;101066.78;;;26.12;34.64
42169;BME280;27838;43.858;25.974;2023-07-28T08:30:27;101068.41;;;26.14;34.18
42169;BME280;27838;43.858;25.974;2023-07-28T08:32:53;101075.03;;;26.23;34.19
42169;BME280;27838;43.858;25.974;2023-07-28T08:35:20;101072.25;;;26.25;35.46
42169;BME280;27838;43.858;25.974;2023-07-28T08:37:46;101086.66;;;26.36;36.22
42169;BME280;27838;43.858;25.974;2023-07-28T08:40:13;101075.31;;;26.47;34.99
42169;BME280;27838;43.858;25.974;2023-07-28T08:42:40;101066.34;;;26.48;34.59
42169;BME280;27838;43.858;25.974;2023-07-28T08:45:07;101059.09;;;26.50;34.25
42169;BME280;27838;43.858;25.974;2023-07-28T08:47:35;101054.00;;;26.62;35.04
42169;BME280;27838;43.858;25.974;2023-07-28T08:50:02;101062.38;;;26.70;34.80
42169;BME280;27838;43.858;25.974;2023-07-28T08:52:29;101056.28;;;26.68;32.77
42169;BME280;27838;43.858;25.974;2023-07-28T08:54:55;101042.81;;;26.69;32.07
42169;BME280;27838;43.858;25.974;2023-07-28T08:57:22;101060.75;;;26.67;33.07
42169;BME280;27838;43.858;25.974;2023-07-28T08:59:48;101055.22;;;26.70;32.60
42169;BME280;27838;43.858;25.974;2023-07-28T09:02:18;101055.91;;;26.74;31.42
42169;BME280;27838;43.858;25.974;2023-07-28T09:04:46;101043.38;;;26.74;32.21
42169;BME280;27838;43.858;25.974;2023-07-28T09:07:13;101046.91;;;26.89;31.64
42169;BME280;27838;43.858;25.974;2023-07-28T09:09:40;101052.03;;;27.07;31.47
42169;BME280;27838;43.858;25.974;2023-07-28T09:12:07;101056.22;;;27.11;32.60
42169;BME280;27838;43.858;25.974;2023-07-28T09:14:36;101056.03;;;27.14;30.36
42169;BME280;27838;43.858;25.974;2023-07-28T09:17:09;101045.34;;;27.14;31.17
42169;BME280;27838;43.858;25.974;2023-07-28T09:19:55;101053.69;;;27.22;31.60
42169;BME280;27838;43.858;25.974;2023-07-28T09:22:23;101044.25;;;27.31;31.49
42169;BME280;27838;43.858;25.974;2023-07-28T09:24:50;101043.00;;;27.37;30.55
42169;BME280;27838;43.858;25.974;2023-07-28T09:27:26;101038.88;;;27.45;30.86
42169;BME280;27838;43.858;25.974;2023-07-28T09:29:55;101034.16;;;27.49;31.87
42169;BME280;27838;43.858;25.974;2023-07-28T09:32:30;101039.44;;;27.63;30.64
42169;BME280;27838;43.858;25.974;2023-07-28T09:35:12;101030.91;;;27.71;29.07
42169;BME280;27838;43.858;25.974;2023-07-28T09:37:41;101026.53;;;27.83;29.46
42169;BME280;27838;43.858;25.974;2023-07-28T09:40:10;101024.97;;;27.93;29.90
42169;BME280;27838;43.858;25.974;2023-07-28T09:42:41;101026.28;;;28.00;29.68
42169;BME280;27838;43.858;25.974;2023-07-28T09:45:08;101027.16;;;28.14;28.65
42169;BME280;27838;43.858;25.974;2023-07-28T09:47:36;101020.81;;;28.15;28.40
42169;BME280;27838;43.858;25.974;2023-07-28T09:50:05;101019.22;;;28.12;29.21
42169;BME280;27838;43.858;25.974;2023-07-28T09:52:37;101020.28;;;28.22;26.16
42169;BME280;27838;43.858;25.974;2023-07-28T09:55:08;101020.06;;;28.38;25.36
42169;BME280;27838;43.858;25.974;2023-07-28T09:57:39;101018.03;;;28.55;25.67
42169;BME280;27838;43.858;25.974;2023-07-28T10:00:10;101021.34;;;28.71;25.56
42169;BME280;27838;43.858;25.974;2023-07-28T10:02:38;101012.97;;;28.76;25.62
42169;BME280;27838;43.858;25.974;2023-07-28T10:05:06;101009.00;;;28.81;26.43
42169;BME280;27838;43.858;25.974;2023-07-28T10:07:35;101019.47;;;28.85;25.59
42169;BME280;27838;43.858;25.974;2023-07-28T10:10:07;101016.06;;;28.83;24.81
42169;BME280;27838;43.858;25.974;2023-07-28T10:12:52;101017.84;;;28.95;26.01
42169;BME280;27838;43.858;25.974;2023-07-28T10:15:20;101021.06;;;29.00;25.93
42169;BME280;27838;43.858;25.974;2023-07-28T10:17:50;101012.03;;;29.01;26.41
42169;BME280;27838;43.858;25.974;2023-07-28T10:20:38;101010.53;;;28.97;26.30
42169;BME280;27838;43.858;25.974;2023-07-28T10:23:22;101004.53;;;28.93;26.92
42169;BME280;27838;43.858;25.974;2023-07-28T10:25:56;100999.16;;;29.06;26.50
42169;BME280;27838;43.858;25.974;2023-07-28T10:28:37;100998.69;;;29.12;26.02
42169;BME280;27838;43.858;25.974;2023-07-28T10:31:10;100990.25;;;29.30;26.53
42169;BME280;27838;43.858;25.974;2023-07-28T10:33:38;100996.78;;;29.38;26.22
42169;BME280;27838;43.858;25.974;2023-07-28T10:39:02;100992.75;;;29.44;25.13
42169;BME280;27838;43.858;25.974;2023-07-28T10:41:38;100990.34;;;29.52;25.77
42169;BME280;27838;43.858;25.974;2023-07-28T10:44:04;100991.38;;;29.63;25.59
42169;BME280;27838;43.858;25.974;2023-07-28T10:46:34;100978.44;;;29.68;25.34
42169;BME280;27838;43.858;25.974;2023-07-28T10:49:05;100966.25;;;29.75;24.80
42169;BME280;27838;43.858;25.974;2023-07-28T10:51:32;100967.47;;;29.71;24.84
42169;BME280;27838;43.858;25.974;2023-07-28T10:54:02;100972.22;;;29.67;25.27
42169;BME280;27838;43.858;25.974;2023-07-28T10:56:29;100964.53;;;29.74;24.56
42169;BME280;27838;43.858;25.974;2023-07-28T10:59:02;100959.69;;;29.79;24.96
42169;BME280;27838;43.858;25.974;2023-07-28T11:04:20;100953.97;;;29.95;24.70
42169;BME280;27838;43.858;25.974;2023-07-28T11:06:49;100945.06;;;29.94;24.73
42169;BME280;27838;43.858;25.974;2023-07-28T11:09:18;100941.41;;;30.07;24.39
42169;BME280;27838;43.858;25.974;2023-07-28T11:11:46;100933.84;;;30.12;24.68
42169;BME280;27838;43.858;25.974;2023-07-28T11:14:15;100943.13;;;30.19;24.43
42169;BME280;27838;43.858;25.974;2023-07-28T11:16:42;100933.97;;;30.22;24.74
42169;BME280;27838;43.858;25.974;2023-07-28T11:19:12;100939.34;;;30.22;24.26
42169;BME280;27838;43.858;25.974;2023-07-28T11:21:40;100937.25;;;30.14;24.43
42169;BME280;27838;43.858;25.974;2023-07-28T11:24:07;100931.88;;;30.14;24.50
42169;BME280;27838;43.858;25.974;2023-07-28T11:26:35;100930.19;;;30.13;24.96
42169;BME280;27838;43.858;25.974;2023-07-28T11:29:03;100922.63;;;30.18;24.82
42169;BME280;27838;43.858;25.974;2023-07-28T11:31:31;100923.34;;;30.20;24.62
42169;BME280;27838;43.858;25.974;2023-07-28T11:33:58;100920.31;;;30.25;24.94
42169;BME280;27838;43.858;25.974;2023-07-28T11:36:26;100909.91;;;30.20;25.41
42169;BME280;27838;43.858;25.974;2023-07-28T11:38:54;100918.69;;;30.22;25.32
42169;BME280;27838;43.858;25.974;2023-07-28T11:41:22;100915.03;;;30.23;24.94
42169;BME280;27838;43.858;25.974;2023-07-28T11:43:50;100906.59;;;30.28;24.58
42169;BME280;27838;43.858;25.974;2023-07-28T11:49:11;100913.81;;;30.39;25.01
42169;BME280;27838;43.858;25.974;2023-07-28T11:51:41;100910.88;;;30.42;24.54
42169;BME280;27838;43.858;25.974;2023-07-28T11:54:14;100904.31;;;30.46;24.25
42169;BME280;27838;43.858;25.974;2023-07-28T11:56:42;100896.22;;;30.46;24.57
42169;BME280;27838;43.858;25.974;2023-07-28T11:59:10;100896.22;;;30.46;24.37
42169;BME280;27838;43.858;25.974;2023-07-28T12:01:58;100888.38;;;30.31;24.13
42169;BME280;27838;43.858;25.974;2023-07-28T12:04:29;100893.03;;;30.29;24.67
42169;BME280;27838;43.858;25.974;2023-07-28T12:07:15;100891.19;;;30.30;24.55
42169;BME280;27838;43.858;25.974;2023-07-28T12:12:21;100894.38;;;30.24;23.86
42169;BME280;27838;43.858;25.974;2023-07-28T12:14:49;100893.06;;;30.18;24.52
42169;BME280;27838;43.858;25.974;2023-07-28T12:17:18;100888.66;;;30.17;24.81
42169;BME280;27838;43.858;25.974;2023-07-28T12:20:07;100880.69;;;30.16;24.74
42169;BME280;27838;43.858;25.974;2023-07-28T12:22:47;100893.53;;;30.23;24.19
42169;BME280;27838;43.858;25.974;2023-07-28T12:25:14;100884.25;;;30.27;24.24
42169;BME280;27838;43.858;25.974;2023-07-28T12:27:40;100873.00;;;30.22;24.62
42169;BME280;27838;43.858;25.974;2023-07-28T12:30:07;100864.81;;;30.24;24.98
42169;BME280;27838;43.858;25.974;2023-07-28T12:32:34;100860.03;;;30.27;24.80
42169;BME280;27838;43.858;25.974;2023-07-28T12:35:01;100865.31;;;30.29;24.57
42169;BME280;27838;43.858;25.974;2023-07-28T12:37:28;100858.91;;;30.30;23.85
42169;BME280;27838;43.858;25.974;2023-07-28T12:39:55;100858.81;;;30.31;23.66
42169;BME280;27838;43.858;25.974;2023-07-28T12:42:21;100853.22;;;30.35;23.65
42169;BME280;27838;43.858;25.974;2023-07-28T12:44:48;100840.38;;;30.27;23.74
42169;BME280;27838;43.858;25.974;2023-07-28T12:47:14;100846.16;;;30.11;23.36
42169;BME280;27838;43.858;25.974;2023-07-28T12:49:41;100847.84;;;30.12;23.96
42169;BME280;27838;43.858;25.974;2023-07-28T12:52:07;100851.25;;;30.14;24.06
42169;BME280;27838;43.858;25.974;2023-07-28T12:54:34;100842.09;;;30.17;24.00
42169;BME280;27838;43.858;25.974;2023-07-28T12:57:01;100839.28;;;30.18;23.29